Patriot — WDC2859 — position and weather

sailwx.info

Track history (hours):
 
Tides and Currents Weather Stations Pressure Air Temp Water Temp Dewpoint Dewpoint Depression Visibility Wind Speed Wind Dir Waves Ship Positions

Patriot

Owner: AMNAV Maritime Corporation, Oakland, CA. More information available from US FCC via Universal Licensing System and Coast Guard Vessel Documentation Center.

Last reported at 2017-Aug-18 03:59 UTC. Time now 2017-Aug-19 01:38 UTC.
Position N 38°02' W 122°08'.

Length 31 m; draft 4.6 m.

Type: Tug. MMSI: 366998680.

Date/timePositionNaut miles runAvg speedWind from/ knotsBaromVisibWave heightAir tempDewpointWater temp
2017-Aug-18 03:59N 38°02' W 122°08'1 0.4
2017-Aug-18 01:24N 38°02' W 122°10'2 0.1
2017-Aug-16 12:15N 38°03' W 122°12'5 8.8
2017-Aug-16 11:44N 38°03' W 122°18'4 9.4
2017-Aug-16 11:21N 38°02' W 122°22'511.2
2017-Aug-16 10:55N 37°58' W 122°26'4 9.3
2017-Aug-16 10:30N 37°54' W 122°24'0 0.0
2017-Aug-16 10:00N 37°54' W 122°24'0 0.0
2017-Aug-16 09:30N 37°54' W 122°24'0 0.0
2017-Aug-16 09:00N 37°54' W 122°24'0 0.0
2017-Aug-16 08:30N 37°54' W 122°24'0 0.0
2017-Aug-16 08:00N 37°54' W 122°24'0 0.1
2017-Aug-16 07:30N 37°54' W 122°24'0 0.1
2017-Aug-16 07:00N 37°54' W 122°24'0 0.0
2017-Aug-16 06:30N 37°54' W 122°24'1 2.8
2017-Aug-16 06:00N 37°54' W 122°22'0 0.6
2017-Aug-16 05:30N 37°54' W 122°22'3 5.7
2017-Aug-16 05:00N 37°55' W 122°25'1 2.8
2017-Aug-16 04:30N 37°54' W 122°25'1 2.6
2017-Aug-16 04:00N 37°55' W 122°23'0 0.0
2017-Aug-16 03:30N 37°55' W 122°23'0 0.0
2017-Aug-16 03:00N 37°55' W 122°23'0 0.0
2017-Aug-16 02:30N 37°55' W 122°23'0 0.0
2017-Aug-16 02:00N 37°55' W 122°23'0 0.0
2017-Aug-16 01:30N 37°55' W 122°23'0 0.0
2017-Aug-16 01:00N 37°55' W 122°23'0 0.0
2017-Aug-16 00:30N 37°55' W 122°23'1 1.4
2017-Aug-16 00:00N 37°54' W 122°22'1 1.0
2017-Aug-15 23:30N 37°54' W 122°22'0 0.2
2017-Aug-15 23:00N 37°55' W 122°22'2 4.5
2017-Aug-15 22:30N 37°55' W 122°25'5 8.5
2017-Aug-15 21:58N 37°59' W 122°25'510.0
2017-Aug-15 21:26N 38°03' W 122°20'511.8
2017-Aug-15 21:00N 38°04' W 122°13'0 0.0
2017-Aug-15 04:36N 38°04' W 122°13'211.9
2017-Aug-15 04:24N 38°03' W 122°16'512.0
2017-Aug-15 03:59N 38°02' W 122°22'610.7
2017-Aug-15 03:27N 37°57' W 122°26'4 8.8
2017-Aug-15 03:00N 37°54' W 122°22'0 0.0
2017-Aug-15 02:30N 37°54' W 122°22'0 0.5
2017-Aug-15 01:59N 37°54' W 122°22'1 2.6
2017-Aug-15 01:30N 37°54' W 122°24'0 0.0
2017-Aug-15 01:00N 37°54' W 122°24'0 0.0
2017-Aug-15 00:30N 37°54' W 122°24'0 0.0
2017-Aug-15 00:00N 37°54' W 122°24'2 3.1
2017-Aug-14 23:30N 37°55' W 122°25'3 5.8
2017-Aug-14 23:00N 37°54' W 122°22'0 0.2
2017-Aug-14 22:30N 37°55' W 122°22'0 0.4
2017-Aug-14 22:00N 37°54' W 122°22'4 7.9
2017-Aug-14 21:30N 37°57' W 122°26'810.9
2017-Aug-14 20:44N 38°03' W 122°19'9 1.9
2017-Aug-14 16:06N 38°02' W 122°08'4 2.8
2017-Aug-14 14:31N 38°04' W 122°13'011.3
2017-Aug-14 14:30N 38°04' W 122°13'710.4
2017-Aug-14 13:50N 38°02' W 122°22'510.1
2017-Aug-14 13:18N 37°57' W 122°26'310.3
2017-Aug-14 13:00N 37°54' W 122°25'5 9.9
2017-Aug-14 12:30N 37°50' W 122°22'3 5.3
2017-Aug-14 12:00N 37°49' W 122°19'0 0.0
2017-Aug-14 11:30N 37°49' W 122°19'0 0.0
2017-Aug-14 11:00N 37°49' W 122°19'0 0.0
2017-Aug-14 10:30N 37°49' W 122°19'0 0.0
2017-Aug-14 10:01N 37°49' W 122°19'0 0.0
2017-Aug-14 09:30N 37°49' W 122°19'0 0.0
2017-Aug-14 09:00N 37°49' W 122°19'0 0.0
2017-Aug-14 08:30N 37°49' W 122°19'0 0.0
2017-Aug-14 08:00N 37°49' W 122°19'0 0.0
2017-Aug-14 07:31N 37°49' W 122°19'0 0.0
2017-Aug-14 07:00N 37°49' W 122°19'0 0.0
2017-Aug-14 06:30N 37°49' W 122°19'0 0.0
2017-Aug-14 06:00N 37°49' W 122°19'0 0.0
2017-Aug-14 05:30N 37°49' W 122°19'0 0.0
2017-Aug-14 05:00N 37°49' W 122°19'0 0.0
2017-Aug-14 04:30N 37°49' W 122°19'0 0.0
2017-Aug-14 04:00N 37°49' W 122°19'2 3.8
2017-Aug-14 03:30N 37°49' W 122°21'5 8.9
2017-Aug-14 03:00N 37°53' W 122°24'2 3.6
2017-Aug-14 02:24N 37°54' W 122°22'0 0.5
2017-Aug-14 02:00N 37°54' W 122°22'1 2.8
2017-Aug-14 01:29N 37°54' W 122°24'0 0.2
2017-Aug-14 01:00N 37°54' W 122°24'0 0.0
2017-Aug-14 00:30N 37°54' W 122°24'0 0.0
2017-Aug-14 00:00N 37°54' W 122°24'5 9.9
2017-Aug-13 23:30N 37°50' W 122°22'2 4.2
2017-Aug-13 23:00N 37°49' W 122°20'1 1.9
2017-Aug-13 22:30N 37°49' W 122°19'0 0.0
2017-Aug-13 22:00N 37°49' W 122°19'0 0.0
2017-Aug-13 21:31N 37°49' W 122°19'0 0.0
2017-Aug-13 21:00N 37°49' W 122°19'0 0.0
2017-Aug-13 20:18N 37°49' W 122°19'0 0.0
2017-Aug-13 20:00N 37°49' W 122°19'0 0.0
2017-Aug-13 19:30N 37°49' W 122°19'0 0.0
2017-Aug-13 19:00N 37°49' W 122°19'0 0.0
2017-Aug-13 18:31N 37°49' W 122°19'0 0.0
2017-Aug-13 18:00N 37°49' W 122°19'0 0.0
2017-Aug-13 17:30N 37°49' W 122°19'0 0.0
2017-Aug-13 17:00N 37°49' W 122°19'0 0.0
2017-Aug-13 16:30N 37°49' W 122°19'0 0.0
2017-Aug-13 16:00N 37°49' W 122°19'0 0.0
2017-Aug-13 15:30N 37°49' W 122°19'0 0.0
2017-Aug-13 15:00N 37°49' W 122°19'0 0.0
2017-Aug-13 14:30N 37°49' W 122°19'0 0.0
2017-Aug-13 14:00N 37°49' W 122°19'0 0.0
2017-Aug-13 13:30N 37°49' W 122°19'0 0.0
2017-Aug-13 13:00N 37°49' W 122°19'0 0.0
2017-Aug-13 12:30N 37°49' W 122°19'0 0.0
2017-Aug-13 12:00N 37°49' W 122°19'0 0.0
2017-Aug-13 11:30N 37°49' W 122°19'0 0.0
2017-Aug-13 11:00N 37°49' W 122°19'0 0.0
2017-Aug-13 10:30N 37°49' W 122°19'0 0.0
2017-Aug-13 10:00N 37°49' W 122°19'0 0.0
2017-Aug-13 09:30N 37°49' W 122°19'0 0.0
2017-Aug-13 09:00N 37°49' W 122°19'0 0.0
2017-Aug-13 08:30N 37°49' W 122°19'0 0.0
2017-Aug-13 08:00N 37°49' W 122°19'0 0.0
2017-Aug-13 07:30N 37°49' W 122°19'0 0.0
2017-Aug-13 07:00N 37°49' W 122°19'0 0.0
2017-Aug-13 06:30N 37°49' W 122°19'0 0.0
2017-Aug-13 06:00N 37°49' W 122°19'0 0.0
2017-Aug-13 05:31N 37°49' W 122°19'1 1.9
2017-Aug-13 05:00N 37°49' W 122°20'1 1.5
2017-Aug-13 04:30N 37°48' W 122°21'0 0.0
2017-Aug-13 04:00N 37°48' W 122°21'0 0.0
2017-Aug-13 03:30N 37°48' W 122°21'0 0.0
2017-Aug-13 03:00N 37°48' W 122°21'1 2.4
2017-Aug-13 02:30N 37°48' W 122°19'0 0.8
2017-Aug-13 02:00N 37°48' W 122°19'0 0.9
2017-Aug-13 01:30N 37°48' W 122°19'0 0.0
2017-Aug-13 01:01N 37°48' W 122°19'0 0.0
2017-Aug-13 00:30N 37°48' W 122°19'0 0.2
2017-Aug-13 00:00N 37°48' W 122°19'0 0.9
2017-Aug-12 23:31N 37°48' W 122°19'0 0.1
2017-Aug-12 23:00N 37°48' W 122°19'0 0.0
2017-Aug-12 22:30N 37°48' W 122°19'0 0.6
2017-Aug-12 22:00N 37°48' W 122°19'2 3.8
2017-Aug-12 21:30N 37°48' W 122°21'1 1.6
2017-Aug-12 21:00N 37°48' W 122°21'0 0.0
2017-Aug-12 20:30N 37°48' W 122°21'0 0.0
2017-Aug-12 20:00N 37°48' W 122°21'0 0.0
2017-Aug-12 19:30N 37°48' W 122°21'0 0.0
2017-Aug-12 19:00N 37°48' W 122°21'0 0.0
2017-Aug-12 18:30N 37°48' W 122°21'2 4.9
2017-Aug-12 18:00N 37°50' W 122°22'510.9
2017-Aug-12 17:30N 37°55' W 122°25'0 0.4
2017-Aug-12 17:00N 37°55' W 122°25'0 0.1
2017-Aug-12 16:30N 37°55' W 122°25'2 3.6
2017-Aug-12 16:00N 37°54' W 122°24'5 9.3
2017-Aug-12 15:30N 37°49' W 122°21'2 4.4
2017-Aug-12 15:00N 37°49' W 122°19'0 0.0
2017-Aug-12 14:31N 37°49' W 122°19'0 0.0
2017-Aug-12 14:00N 37°49' W 122°19'0 0.0
2017-Aug-12 13:30N 37°49' W 122°19'0 0.0
2017-Aug-12 13:01N 37°49' W 122°19'0 0.0
2017-Aug-12 12:30N 37°49' W 122°19'0 0.0
2017-Aug-12 12:01N 37°49' W 122°19'0 0.0
2017-Aug-12 11:30N 37°49' W 122°19'0 0.0
2017-Aug-12 11:01N 37°49' W 122°19'0 0.0
2017-Aug-12 10:31N 37°49' W 122°19'0 0.0
2017-Aug-12 10:01N 37°49' W 122°19'0 0.0
2017-Aug-12 09:31N 37°49' W 122°19'0 0.0
2017-Aug-12 09:01N 37°49' W 122°19'0 0.0
2017-Aug-12 08:30N 37°49' W 122°19'0 0.0
2017-Aug-12 08:01N 37°49' W 122°19'0 0.0
2017-Aug-12 07:31N 37°49' W 122°19'0 0.0
2017-Aug-12 07:01N 37°49' W 122°19'0 0.0
2017-Aug-12 06:30N 37°49' W 122°19'0 0.0
2017-Aug-12 06:01N 37°49' W 122°19'0 0.0
2017-Aug-12 05:31N 37°49' W 122°19'0 0.0
2017-Aug-12 05:01N 37°49' W 122°19'0 0.0
2017-Aug-12 04:30N 37°49' W 122°19'0 0.0
2017-Aug-12 04:00N 37°49' W 122°19'0 0.0
2017-Aug-12 03:31N 37°49' W 122°19'0 0.0
2017-Aug-12 03:00N 37°49' W 122°19'0 0.0
2017-Aug-12 02:31N 37°49' W 122°19'0 0.0
2017-Aug-12 02:01N 37°49' W 122°19'0 0.0
2017-Aug-12 01:31N 37°49' W 122°19'0 0.0
2017-Aug-12 01:01N 37°49' W 122°19'0 0.4
2017-Aug-12 00:30N 37°49' W 122°19'4 8.1
2017-Aug-12 00:00N 37°51' W 122°23'4 8.5
2017-Aug-11 23:30N 37°55' W 122°25'0 0.1
2017-Aug-11 23:00N 37°55' W 122°25'2 4.1
2017-Aug-11 22:30N 37°53' W 122°25'0 0.4
2017-Aug-11 22:00N 37°53' W 122°25'2 4.0
2017-Aug-11 21:30N 37°55' W 122°26'4 7.6
2017-Aug-11 21:00N 37°59' W 122°25'610.3
2017-Aug-11 20:25N 38°02' W 122°19'4 3.3
2017-Aug-11 19:16N 38°04' W 122°15'1 1.6
2017-Aug-11 18:42N 38°04' W 122°13'0 0.0
2017-Aug-11 01:17N 38°04' W 122°13'412.6
2017-Aug-11 00:56N 38°03' W 122°19'811.5
2017-Aug-11 00:16N 37°58' W 122°26'311.7
2017-Aug-11 00:00N 37°55' W 122°25'612.1
2017-Aug-10 23:30N 37°49' W 122°21'2 4.4
2017-Aug-10 23:00N 37°48' W 122°19'1 2.8
2017-Aug-10 22:30N 37°48' W 122°18'1 1.6
2017-Aug-10 22:00N 37°48' W 122°19'2 4.3
2017-Aug-10 21:30N 37°48' W 122°21'0 1.0
2017-Aug-10 21:01N 37°48' W 122°21'4 7.0
2017-Aug-10 20:30N 37°51' W 122°23'3 6.2
2017-Aug-10 20:00N 37°54' W 122°23'1 0.9
2017-Aug-10 18:57N 37°55' W 122°22'0 0.0
2017-Aug-10 18:29N 37°55' W 122°22'0 1.0
2017-Aug-10 18:00N 37°55' W 122°22'1 1.0
2017-Aug-10 17:30N 37°54' W 122°22'3 5.6
2017-Aug-10 17:00N 37°55' W 122°25'3 5.9
2017-Aug-10 16:30N 37°52' W 122°25'510.1
2017-Aug-10 16:00N 37°49' W 122°20'1 2.9
2017-Aug-10 15:30N 37°49' W 122°19'0 0.0
2017-Aug-10 15:01N 37°49' W 122°19'0 0.0
2017-Aug-10 14:31N 37°49' W 122°19'0 0.0
2017-Aug-10 14:01N 37°49' W 122°19'0 0.0
2017-Aug-10 13:31N 37°49' W 122°19'0 0.0
2017-Aug-10 13:00N 37°49' W 122°19'0 0.0
2017-Aug-10 12:30N 37°49' W 122°19'0 0.0
2017-Aug-10 12:00N 37°49' W 122°19'0 0.0
2017-Aug-10 11:30N 37°49' W 122°19'0 0.0
2017-Aug-10 11:00N 37°49' W 122°19'0 0.0
2017-Aug-10 10:31N 37°49' W 122°19'0 0.0
2017-Aug-10 10:01N 37°49' W 122°19'0 0.0
2017-Aug-10 09:30N 37°49' W 122°19'0 0.0
2017-Aug-10 09:00N 37°49' W 122°19'0 0.0
2017-Aug-10 08:30N 37°49' W 122°19'0 0.0
2017-Aug-10 08:01N 37°49' W 122°19'0 0.0
2017-Aug-10 07:31N 37°49' W 122°19'0 0.0
2017-Aug-10 07:00N 37°49' W 122°19'0 0.0
2017-Aug-10 06:31N 37°49' W 122°19'0 0.0
2017-Aug-10 06:01N 37°49' W 122°19'0 0.0
2017-Aug-10 05:30N 37°49' W 122°19'0 0.0
2017-Aug-10 05:01N 37°49' W 122°19'0 0.0
2017-Aug-10 04:31N 37°49' W 122°19'0 0.0
2017-Aug-10 04:00N 37°49' W 122°19'0 0.0
2017-Aug-10 03:30N 37°49' W 122°19'0 0.0
2017-Aug-10 03:00N 37°49' W 122°19'2 3.2
2017-Aug-10 02:30N 37°48' W 122°19'1 1.0
2017-Aug-10 02:01N 37°48' W 122°18'0 0.6
2017-Aug-10 01:31N 37°48' W 122°18'3 4.3
2017-Aug-10 00:54N 37°48' W 122°21'1 3.0
2017-Aug-10 00:30N 37°48' W 122°22'2 3.1
2017-Aug-10 00:00N 37°48' W 122°21'2 3.4
2017-Aug-09 23:30N 37°49' W 122°19'0 0.0
2017-Aug-09 23:01N 37°49' W 122°19'0 0.0
2017-Aug-09 22:31N 37°49' W 122°19'0 0.0
2017-Aug-09 22:00N 37°49' W 122°19'0 0.0
2017-Aug-09 21:30N 37°49' W 122°19'0 0.0
2017-Aug-09 21:00N 37°49' W 122°19'0 0.0
2017-Aug-09 20:31N 37°49' W 122°19'0 0.0
2017-Aug-09 20:00N 37°49' W 122°19'0 0.0
2017-Aug-09 19:30N 37°49' W 122°19'0 0.0
2017-Aug-09 19:01N 37°49' W 122°19'0 0.0
2017-Aug-09 18:30N 37°49' W 122°19'0 0.0
2017-Aug-09 18:01N 37°49' W 122°19'0 0.0
2017-Aug-09 17:30N 37°49' W 122°19'0 0.0
2017-Aug-09 17:01N 37°49' W 122°19'0 0.0
2017-Aug-09 16:31N 37°49' W 122°19'0 0.0
2017-Aug-09 16:00N 37°49' W 122°19'0 0.0
2017-Aug-09 15:30N 37°49' W 122°19'0 0.0
2017-Aug-09 15:01N 37°49' W 122°19'0 0.0
2017-Aug-09 14:30N 37°49' W 122°19'0 0.0
2017-Aug-09 14:00N 37°49' W 122°19'0 0.0
2017-Aug-09 13:30N 37°49' W 122°19'0 0.0
2017-Aug-09 13:00N 37°49' W 122°19'0 0.0
2017-Aug-09 12:31N 37°49' W 122°19'0 0.0
2017-Aug-09 12:01N 37°49' W 122°19'0 0.0
2017-Aug-09 11:31N 37°49' W 122°19'0 0.0
2017-Aug-09 11:01N 37°49' W 122°19'0 0.0
2017-Aug-09 10:30N 37°49' W 122°19'0 0.0
2017-Aug-09 10:00N 37°49' W 122°19'0 0.0
2017-Aug-09 09:30N 37°49' W 122°19'0 0.0
2017-Aug-09 09:00N 37°49' W 122°19'0 0.0
2017-Aug-09 08:30N 37°49' W 122°19'0 0.0
2017-Aug-09 08:00N 37°49' W 122°19'0 0.0
2017-Aug-09 07:31N 37°49' W 122°19'0 0.0
2017-Aug-09 07:00N 37°49' W 122°19'0 0.0
2017-Aug-09 06:30N 37°49' W 122°19'0 0.0
2017-Aug-09 06:00N 37°49' W 122°19'0 0.0
2017-Aug-09 05:30N 37°49' W 122°19'0 0.0
2017-Aug-09 05:00N 37°49' W 122°19'0 0.0
2017-Aug-09 04:31N 37°49' W 122°19'0 0.0
2017-Aug-09 04:00N 37°49' W 122°19'1 2.0
2017-Aug-09 03:30N 37°49' W 122°20'510.5
2017-Aug-09 03:00N 37°53' W 122°24'2 4.4
2017-Aug-09 02:30N 37°54' W 122°22'1 1.6
2017-Aug-09 01:59N 37°54' W 122°23'2 4.3
2017-Aug-09 01:30N 37°55' W 122°25'1 2.8
2017-Aug-09 01:00N 37°54' W 122°24'1 1.3
2017-Aug-09 00:30N 37°54' W 122°23'1 2.1
2017-Aug-09 00:00N 37°55' W 122°22'0 0.6
2017-Aug-08 23:30N 37°55' W 122°22'2 4.8
2017-Aug-08 22:59N 37°55' W 122°25'2 5.0
2017-Aug-08 22:30N 37°53' W 122°25'611.7
2017-Aug-08 22:00N 37°47' W 122°23'2 4.5
2017-Aug-08 21:30N 37°45' W 122°23'0 0.6
2017-Aug-08 21:01N 37°45' W 122°23'1 2.5
2017-Aug-08 20:31N 37°46' W 122°22'2 3.2
2017-Aug-08 20:00N 37°46' W 122°20'1 1.9
2017-Aug-08 19:30N 37°47' W 122°18'0 0.7
2017-Aug-08 19:00N 37°46' W 122°18'0 0.0
2017-Aug-08 18:30N 37°46' W 122°18'2 5.0
2017-Aug-08 18:01N 37°47' W 122°21'612.3
2017-Aug-08 17:30N 37°53' W 122°24'2 5.0
2017-Aug-08 17:00N 37°55' W 122°22'0 0.1
2017-Aug-08 16:30N 37°55' W 122°22'0 0.4
2017-Aug-08 16:01N 37°55' W 122°22'3 5.1
2017-Aug-08 15:30N 37°55' W 122°25'1311.1
2017-Aug-08 14:23N 38°04' W 122°13'4 0.5
2017-Aug-08 06:07N 38°02' W 122°08'1 5.0
2017-Aug-08 06:00N 38°02' W 122°09'2 3.3
2017-Aug-08 05:31N 38°03' W 122°11'5 8.5
2017-Aug-08 04:55N 38°03' W 122°17'4 9.6
2017-Aug-08 04:31N 38°02' W 122°22'  
Track history (hours):
 
Tides and Currents Weather Stations Pressure Air Temp Water Temp Dewpoint Dewpoint Depression Visibility Wind Speed Wind Dir Waves Ship Positions

Patriot

Owner: AMNAV Maritime Corporation, Oakland, CA. More information available from US FCC via Universal Licensing System and Coast Guard Vessel Documentation Center.

Last reported at 2017-Aug-18 03:59 UTC. Time now 2017-Aug-19 01:38 UTC.
Position N 38°02' W 122°08'.

Length 31 m; draft 4.6 m.

Type: Tug. MMSI: 366998680.

Date/timePositionNaut miles runAvg speedWind from/ knotsBaromVisibWave heightAir tempDewpointWater temp
2017-Aug-18 03:59N 38°02' W 122°08'1 0.4
2017-Aug-18 01:24N 38°02' W 122°10'2 0.1
2017-Aug-16 12:15N 38°03' W 122°12'5 8.8
2017-Aug-16 11:44N 38°03' W 122°18'4 9.4
2017-Aug-16 11:21N 38°02' W 122°22'511.2
2017-Aug-16 10:55N 37°58' W 122°26'4 9.3
2017-Aug-16 10:30N 37°54' W 122°24'0 0.0
2017-Aug-16 10:00N 37°54' W 122°24'0 0.0
2017-Aug-16 09:30N 37°54' W 122°24'0 0.0
2017-Aug-16 09:00N 37°54' W 122°24'0 0.0
2017-Aug-16 08:30N 37°54' W 122°24'0 0.0
2017-Aug-16 08:00N 37°54' W 122°24'0 0.1
2017-Aug-16 07:30N 37°54' W 122°24'0 0.1
2017-Aug-16 07:00N 37°54' W 122°24'0 0.0
2017-Aug-16 06:30N 37°54' W 122°24'1 2.8
2017-Aug-16 06:00N 37°54' W 122°22'0 0.6
2017-Aug-16 05:30N 37°54' W 122°22'3 5.7
2017-Aug-16 05:00N 37°55' W 122°25'1 2.8
2017-Aug-16 04:30N 37°54' W 122°25'1 2.6
2017-Aug-16 04:00N 37°55' W 122°23'0 0.0
2017-Aug-16 03:30N 37°55' W 122°23'0 0.0
2017-Aug-16 03:00N 37°55' W 122°23'0 0.0
2017-Aug-16 02:30N 37°55' W 122°23'0 0.0
2017-Aug-16 02:00N 37°55' W 122°23'0 0.0
2017-Aug-16 01:30N 37°55' W 122°23'0 0.0
2017-Aug-16 01:00N 37°55' W 122°23'0 0.0
2017-Aug-16 00:30N 37°55' W 122°23'1 1.4
2017-Aug-16 00:00N 37°54' W 122°22'1 1.0
2017-Aug-15 23:30N 37°54' W 122°22'0 0.2
2017-Aug-15 23:00N 37°55' W 122°22'2 4.5
2017-Aug-15 22:30N 37°55' W 122°25'5 8.5
2017-Aug-15 21:58N 37°59' W 122°25'510.0
2017-Aug-15 21:26N 38°03' W 122°20'511.8
2017-Aug-15 21:00N 38°04' W 122°13'0 0.0
2017-Aug-15 04:36N 38°04' W 122°13'211.9
2017-Aug-15 04:24N 38°03' W 122°16'512.0
2017-Aug-15 03:59N 38°02' W 122°22'610.7
2017-Aug-15 03:27N 37°57' W 122°26'4 8.8
2017-Aug-15 03:00N 37°54' W 122°22'0 0.0
2017-Aug-15 02:30N 37°54' W 122°22'0 0.5
2017-Aug-15 01:59N 37°54' W 122°22'1 2.6
2017-Aug-15 01:30N 37°54' W 122°24'0 0.0
2017-Aug-15 01:00N 37°54' W 122°24'0 0.0
2017-Aug-15 00:30N 37°54' W 122°24'0 0.0
2017-Aug-15 00:00N 37°54' W 122°24'2 3.1
2017-Aug-14 23:30N 37°55' W 122°25'3 5.8
2017-Aug-14 23:00N 37°54' W 122°22'0 0.2
2017-Aug-14 22:30N 37°55' W 122°22'0 0.4
2017-Aug-14 22:00N 37°54' W 122°22'4 7.9
2017-Aug-14 21:30N 37°57' W 122°26'810.9
2017-Aug-14 20:44N 38°03' W 122°19'9 1.9
2017-Aug-14 16:06N 38°02' W 122°08'4 2.8
2017-Aug-14 14:31N 38°04' W 122°13'011.3
2017-Aug-14 14:30N 38°04' W 122°13'710.4
2017-Aug-14 13:50N 38°02' W 122°22'510.1
2017-Aug-14 13:18N 37°57' W 122°26'310.3
2017-Aug-14 13:00N 37°54' W 122°25'5 9.9
2017-Aug-14 12:30N 37°50' W 122°22'3 5.3
2017-Aug-14 12:00N 37°49' W 122°19'0 0.0
2017-Aug-14 11:30N 37°49' W 122°19'0 0.0
2017-Aug-14 11:00N 37°49' W 122°19'0 0.0
2017-Aug-14 10:30N 37°49' W 122°19'0 0.0
2017-Aug-14 10:01N 37°49' W 122°19'0 0.0
2017-Aug-14 09:30N 37°49' W 122°19'0 0.0
2017-Aug-14 09:00N 37°49' W 122°19'0 0.0
2017-Aug-14 08:30N 37°49' W 122°19'0 0.0
2017-Aug-14 08:00N 37°49' W 122°19'0 0.0
2017-Aug-14 07:31N 37°49' W 122°19'0 0.0
2017-Aug-14 07:00N 37°49' W 122°19'0 0.0
2017-Aug-14 06:30N 37°49' W 122°19'0 0.0
2017-Aug-14 06:00N 37°49' W 122°19'0 0.0
2017-Aug-14 05:30N 37°49' W 122°19'0 0.0
2017-Aug-14 05:00N 37°49' W 122°19'0 0.0
2017-Aug-14 04:30N 37°49' W 122°19'0 0.0
2017-Aug-14 04:00N 37°49' W 122°19'2 3.8
2017-Aug-14 03:30N 37°49' W 122°21'5 8.9
2017-Aug-14 03:00N 37°53' W 122°24'2 3.6
2017-Aug-14 02:24N 37°54' W 122°22'0 0.5
2017-Aug-14 02:00N 37°54' W 122°22'1 2.8
2017-Aug-14 01:29N 37°54' W 122°24'0 0.2
2017-Aug-14 01:00N 37°54' W 122°24'0 0.0
2017-Aug-14 00:30N 37°54' W 122°24'0 0.0
2017-Aug-14 00:00N 37°54' W 122°24'5 9.9
2017-Aug-13 23:30N 37°50' W 122°22'2 4.2
2017-Aug-13 23:00N 37°49' W 122°20'1 1.9
2017-Aug-13 22:30N 37°49' W 122°19'0 0.0
2017-Aug-13 22:00N 37°49' W 122°19'0 0.0
2017-Aug-13 21:31N 37°49' W 122°19'0 0.0
2017-Aug-13 21:00N 37°49' W 122°19'0 0.0
2017-Aug-13 20:18N 37°49' W 122°19'0 0.0
2017-Aug-13 20:00N 37°49' W 122°19'0 0.0
2017-Aug-13 19:30N 37°49' W 122°19'0 0.0
2017-Aug-13 19:00N 37°49' W 122°19'0 0.0
2017-Aug-13 18:31N 37°49' W 122°19'0 0.0
2017-Aug-13 18:00N 37°49' W 122°19'0 0.0
2017-Aug-13 17:30N 37°49' W 122°19'0 0.0
2017-Aug-13 17:00N 37°49' W 122°19'0 0.0
2017-Aug-13 16:30N 37°49' W 122°19'0 0.0
2017-Aug-13 16:00N 37°49' W 122°19'0 0.0
2017-Aug-13 15:30N 37°49' W 122°19'0 0.0
2017-Aug-13 15:00N 37°49' W 122°19'0 0.0
2017-Aug-13 14:30N 37°49' W 122°19'0 0.0
2017-Aug-13 14:00N 37°49' W 122°19'0 0.0
2017-Aug-13 13:30N 37°49' W 122°19'0 0.0
2017-Aug-13 13:00N 37°49' W 122°19'0 0.0
2017-Aug-13 12:30N 37°49' W 122°19'0 0.0
2017-Aug-13 12:00N 37°49' W 122°19'0 0.0
2017-Aug-13 11:30N 37°49' W 122°19'0 0.0
2017-Aug-13 11:00N 37°49' W 122°19'0 0.0
2017-Aug-13 10:30N 37°49' W 122°19'0 0.0
2017-Aug-13 10:00N 37°49' W 122°19'0 0.0
2017-Aug-13 09:30N 37°49' W 122°19'0 0.0
2017-Aug-13 09:00N 37°49' W 122°19'0 0.0
2017-Aug-13 08:30N 37°49' W 122°19'0 0.0
2017-Aug-13 08:00N 37°49' W 122°19'0 0.0
2017-Aug-13 07:30N 37°49' W 122°19'0 0.0
2017-Aug-13 07:00N 37°49' W 122°19'0 0.0
2017-Aug-13 06:30N 37°49' W 122°19'0 0.0
2017-Aug-13 06:00N 37°49' W 122°19'0 0.0
2017-Aug-13 05:31N 37°49' W 122°19'1 1.9
2017-Aug-13 05:00N 37°49' W 122°20'1 1.5
2017-Aug-13 04:30N 37°48' W 122°21'0 0.0
2017-Aug-13 04:00N 37°48' W 122°21'0 0.0
2017-Aug-13 03:30N 37°48' W 122°21'0 0.0
2017-Aug-13 03:00N 37°48' W 122°21'1 2.4
2017-Aug-13 02:30N 37°48' W 122°19'0 0.8
2017-Aug-13 02:00N 37°48' W 122°19'0 0.9
2017-Aug-13 01:30N 37°48' W 122°19'0 0.0
2017-Aug-13 01:01N 37°48' W 122°19'0 0.0
2017-Aug-13 00:30N 37°48' W 122°19'0 0.2
2017-Aug-13 00:00N 37°48' W 122°19'0 0.9
2017-Aug-12 23:31N 37°48' W 122°19'0 0.1
2017-Aug-12 23:00N 37°48' W 122°19'0 0.0
2017-Aug-12 22:30N 37°48' W 122°19'0 0.6
2017-Aug-12 22:00N 37°48' W 122°19'2 3.8
2017-Aug-12 21:30N 37°48' W 122°21'1 1.6
2017-Aug-12 21:00N 37°48' W 122°21'0 0.0
2017-Aug-12 20:30N 37°48' W 122°21'0 0.0
2017-Aug-12 20:00N 37°48' W 122°21'0 0.0
2017-Aug-12 19:30N 37°48' W 122°21'0 0.0
2017-Aug-12 19:00N 37°48' W 122°21'0 0.0
2017-Aug-12 18:30N 37°48' W 122°21'2 4.9
2017-Aug-12 18:00N 37°50' W 122°22'510.9
2017-Aug-12 17:30N 37°55' W 122°25'0 0.4
2017-Aug-12 17:00N 37°55' W 122°25'0 0.1
2017-Aug-12 16:30N 37°55' W 122°25'2 3.6
2017-Aug-12 16:00N 37°54' W 122°24'5 9.3
2017-Aug-12 15:30N 37°49' W 122°21'2 4.4
2017-Aug-12 15:00N 37°49' W 122°19'0 0.0
2017-Aug-12 14:31N 37°49' W 122°19'0 0.0
2017-Aug-12 14:00N 37°49' W 122°19'0 0.0
2017-Aug-12 13:30N 37°49' W 122°19'0 0.0
2017-Aug-12 13:01N 37°49' W 122°19'0 0.0
2017-Aug-12 12:30N 37°49' W 122°19'0 0.0
2017-Aug-12 12:01N 37°49' W 122°19'0 0.0
2017-Aug-12 11:30N 37°49' W 122°19'0 0.0
2017-Aug-12 11:01N 37°49' W 122°19'0 0.0
2017-Aug-12 10:31N 37°49' W 122°19'0 0.0
2017-Aug-12 10:01N 37°49' W 122°19'0 0.0
2017-Aug-12 09:31N 37°49' W 122°19'0 0.0
2017-Aug-12 09:01N 37°49' W 122°19'0 0.0
2017-Aug-12 08:30N 37°49' W 122°19'0 0.0
2017-Aug-12 08:01N 37°49' W 122°19'0 0.0
2017-Aug-12 07:31N 37°49' W 122°19'0 0.0
2017-Aug-12 07:01N 37°49' W 122°19'0 0.0
2017-Aug-12 06:30N 37°49' W 122°19'0 0.0
2017-Aug-12 06:01N 37°49' W 122°19'0 0.0
2017-Aug-12 05:31N 37°49' W 122°19'0 0.0
2017-Aug-12 05:01N 37°49' W 122°19'0 0.0
2017-Aug-12 04:30N 37°49' W 122°19'0 0.0
2017-Aug-12 04:00N 37°49' W 122°19'0 0.0
2017-Aug-12 03:31N 37°49' W 122°19'0 0.0
2017-Aug-12 03:00N 37°49' W 122°19'0 0.0
2017-Aug-12 02:31N 37°49' W 122°19'0 0.0
2017-Aug-12 02:01N 37°49' W 122°19'0 0.0
2017-Aug-12 01:31N 37°49' W 122°19'0 0.0
2017-Aug-12 01:01N 37°49' W 122°19'0 0.4
2017-Aug-12 00:30N 37°49' W 122°19'4 8.1
2017-Aug-12 00:00N 37°51' W 122°23'4 8.5
2017-Aug-11 23:30N 37°55' W 122°25'0 0.1
2017-Aug-11 23:00N 37°55' W 122°25'2 4.1
2017-Aug-11 22:30N 37°53' W 122°25'0 0.4
2017-Aug-11 22:00N 37°53' W 122°25'2 4.0
2017-Aug-11 21:30N 37°55' W 122°26'4 7.6
2017-Aug-11 21:00N 37°59' W 122°25'610.3
2017-Aug-11 20:25N 38°02' W 122°19'4 3.3
2017-Aug-11 19:16N 38°04' W 122°15'1 1.6
2017-Aug-11 18:42N 38°04' W 122°13'0 0.0
2017-Aug-11 01:17N 38°04' W 122°13'412.6
2017-Aug-11 00:56N 38°03' W 122°19'811.5
2017-Aug-11 00:16N 37°58' W 122°26'311.7
2017-Aug-11 00:00N 37°55' W 122°25'612.1
2017-Aug-10 23:30N 37°49' W 122°21'2 4.4
2017-Aug-10 23:00N 37°48' W 122°19'1 2.8
2017-Aug-10 22:30N 37°48' W 122°18'1 1.6
2017-Aug-10 22:00N 37°48' W 122°19'2 4.3
2017-Aug-10 21:30N 37°48' W 122°21'0 1.0
2017-Aug-10 21:01N 37°48' W 122°21'4 7.0
2017-Aug-10 20:30N 37°51' W 122°23'3 6.2
2017-Aug-10 20:00N 37°54' W 122°23'1 0.9
2017-Aug-10 18:57N 37°55' W 122°22'0 0.0
2017-Aug-10 18:29N 37°55' W 122°22'0 1.0
2017-Aug-10 18:00N 37°55' W 122°22'1 1.0
2017-Aug-10 17:30N 37°54' W 122°22'3 5.6
2017-Aug-10 17:00N 37°55' W 122°25'3 5.9
2017-Aug-10 16:30N 37°52' W 122°25'510.1
2017-Aug-10 16:00N 37°49' W 122°20'1 2.9
2017-Aug-10 15:30N 37°49' W 122°19'0 0.0
2017-Aug-10 15:01N 37°49' W 122°19'0 0.0
2017-Aug-10 14:31N 37°49' W 122°19'0 0.0
2017-Aug-10 14:01N 37°49' W 122°19'0 0.0
2017-Aug-10 13:31N 37°49' W 122°19'0 0.0
2017-Aug-10 13:00N 37°49' W 122°19'0 0.0
2017-Aug-10 12:30N 37°49' W 122°19'0 0.0
2017-Aug-10 12:00N 37°49' W 122°19'0 0.0
2017-Aug-10 11:30N 37°49' W 122°19'0 0.0
2017-Aug-10 11:00N 37°49' W 122°19'0 0.0
2017-Aug-10 10:31N 37°49' W 122°19'0 0.0
2017-Aug-10 10:01N 37°49' W 122°19'0 0.0
2017-Aug-10 09:30N 37°49' W 122°19'0 0.0
2017-Aug-10 09:00N 37°49' W 122°19'0 0.0
2017-Aug-10 08:30N 37°49' W 122°19'0 0.0
2017-Aug-10 08:01N 37°49' W 122°19'0 0.0
2017-Aug-10 07:31N 37°49' W 122°19'0 0.0
2017-Aug-10 07:00N 37°49' W 122°19'0 0.0
2017-Aug-10 06:31N 37°49' W 122°19'0 0.0
2017-Aug-10 06:01N 37°49' W 122°19'0 0.0
2017-Aug-10 05:30N 37°49' W 122°19'0 0.0
2017-Aug-10 05:01N 37°49' W 122°19'0 0.0
2017-Aug-10 04:31N 37°49' W 122°19'0 0.0
2017-Aug-10 04:00N 37°49' W 122°19'0 0.0
2017-Aug-10 03:30N 37°49' W 122°19'0 0.0
2017-Aug-10 03:00N 37°49' W 122°19'2 3.2
2017-Aug-10 02:30N 37°48' W 122°19'1 1.0
2017-Aug-10 02:01N 37°48' W 122°18'0 0.6
2017-Aug-10 01:31N 37°48' W 122°18'3 4.3
2017-Aug-10 00:54N 37°48' W 122°21'1 3.0
2017-Aug-10 00:30N 37°48' W 122°22'2 3.1
2017-Aug-10 00:00N 37°48' W 122°21'2 3.4
2017-Aug-09 23:30N 37°49' W 122°19'0 0.0
2017-Aug-09 23:01N 37°49' W 122°19'0 0.0
2017-Aug-09 22:31N 37°49' W 122°19'0 0.0
2017-Aug-09 22:00N 37°49' W 122°19'0 0.0
2017-Aug-09 21:30N 37°49' W 122°19'0 0.0
2017-Aug-09 21:00N 37°49' W 122°19'0 0.0
2017-Aug-09 20:31N 37°49' W 122°19'0 0.0
2017-Aug-09 20:00N 37°49' W 122°19'0 0.0
2017-Aug-09 19:30N 37°49' W 122°19'0 0.0
2017-Aug-09 19:01N 37°49' W 122°19'0 0.0
2017-Aug-09 18:30N 37°49' W 122°19'0 0.0
2017-Aug-09 18:01N 37°49' W 122°19'0 0.0
2017-Aug-09 17:30N 37°49' W 122°19'0 0.0
2017-Aug-09 17:01N 37°49' W 122°19'0 0.0
2017-Aug-09 16:31N 37°49' W 122°19'0 0.0
2017-Aug-09 16:00N 37°49' W 122°19'0 0.0
2017-Aug-09 15:30N 37°49' W 122°19'0 0.0
2017-Aug-09 15:01N 37°49' W 122°19'0 0.0
2017-Aug-09 14:30N 37°49' W 122°19'0 0.0
2017-Aug-09 14:00N 37°49' W 122°19'0 0.0
2017-Aug-09 13:30N 37°49' W 122°19'0 0.0
2017-Aug-09 13:00N 37°49' W 122°19'0 0.0
2017-Aug-09 12:31N 37°49' W 122°19'0 0.0
2017-Aug-09 12:01N 37°49' W 122°19'0 0.0
2017-Aug-09 11:31N 37°49' W 122°19'0 0.0
2017-Aug-09 11:01N 37°49' W 122°19'0 0.0
2017-Aug-09 10:30N 37°49' W 122°19'0 0.0
2017-Aug-09 10:00N 37°49' W 122°19'0 0.0
2017-Aug-09 09:30N 37°49' W 122°19'0 0.0
2017-Aug-09 09:00N 37°49' W 122°19'0 0.0
2017-Aug-09 08:30N 37°49' W 122°19'0 0.0
2017-Aug-09 08:00N 37°49' W 122°19'0 0.0
2017-Aug-09 07:31N 37°49' W 122°19'0 0.0
2017-Aug-09 07:00N 37°49' W 122°19'0 0.0
2017-Aug-09 06:30N 37°49' W 122°19'0 0.0
2017-Aug-09 06:00N 37°49' W 122°19'0 0.0
2017-Aug-09 05:30N 37°49' W 122°19'0 0.0
2017-Aug-09 05:00N 37°49' W 122°19'0 0.0
2017-Aug-09 04:31N 37°49' W 122°19'0 0.0
2017-Aug-09 04:00N 37°49' W 122°19'1 2.0
2017-Aug-09 03:30N 37°49' W 122°20'510.5
2017-Aug-09 03:00N 37°53' W 122°24'2 4.4
2017-Aug-09 02:30N 37°54' W 122°22'1 1.6
2017-Aug-09 01:59N 37°54' W 122°23'2 4.3
2017-Aug-09 01:30N 37°55' W 122°25'1 2.8
2017-Aug-09 01:00N 37°54' W 122°24'1 1.3
2017-Aug-09 00:30N 37°54' W 122°23'1 2.1
2017-Aug-09 00:00N 37°55' W 122°22'0 0.6
2017-Aug-08 23:30N 37°55' W 122°22'2 4.8
2017-Aug-08 22:59N 37°55' W 122°25'2 5.0
2017-Aug-08 22:30N 37°53' W 122°25'611.7
2017-Aug-08 22:00N 37°47' W 122°23'2 4.5
2017-Aug-08 21:30N 37°45' W 122°23'0 0.6
2017-Aug-08 21:01N 37°45' W 122°23'1 2.5
2017-Aug-08 20:31N 37°46' W 122°22'2 3.2
2017-Aug-08 20:00N 37°46' W 122°20'1 1.9
2017-Aug-08 19:30N 37°47' W 122°18'0 0.7
2017-Aug-08 19:00N 37°46' W 122°18'0 0.0
2017-Aug-08 18:30N 37°46' W 122°18'2 5.0
2017-Aug-08 18:01N 37°47' W 122°21'612.3
2017-Aug-08 17:30N 37°53' W 122°24'2 5.0
2017-Aug-08 17:00N 37°55' W 122°22'0 0.1
2017-Aug-08 16:30N 37°55' W 122°22'0 0.4
2017-Aug-08 16:01N 37°55' W 122°22'3 5.1
2017-Aug-08 15:30N 37°55' W 122°25'1311.1
2017-Aug-08 14:23N 38°04' W 122°13'4 0.5
2017-Aug-08 06:07N 38°02' W 122°08'1 5.0
2017-Aug-08 06:00N 38°02' W 122°09'2 3.3
2017-Aug-08 05:31N 38°03' W 122°11'5 8.5
2017-Aug-08 04:55N 38°03' W 122°17'4 9.6
2017-Aug-08 04:31N 38°02' W 122°22'  

Dump ship's entire track history